| Back to River Map | <<< Previous Forecast Point | | | Next Forecast Point >>> | Printer Version | Graph Version |  |
|
TRUCKEE RIVER - RENO (TRRN2)
| Latitude: 39.53º N | Longitude: 119.79º W | Elevation: 4445 Feet | | Forecast Type: Official Location |
| Location: Washoe County in Nevada | Bulletin Group: Eastern Sierra | River Group: Eastern Sierra |
| Issuance Time: | Sep 01 2026 at 7:32 AM PDT | Next Issuance: | Sep 02 2026 at 9:00 AM PDT
| |
| Action/Monitor: 10.0 Feet | Minor Flood: 12.0 Feet | Moderate Flood: 13.0 Feet | Major Flood: 14.0 Feet |
# Tabular Observed and Forecast Hydrograph Information
#
# Location: Truckee River - Reno (TRRN2)
#
# File Generation Time: 09/01/2026 at 07:32 AM PDT
# Data Interval: 1 Hour
#
# Most Recent Date & Time of Maximum Observed: 08/29/2026 at 12:00 PM PDT
# Maximum Observed Stage: 4.34 Feet
# Maximum Observed Flow: 385 cfs
#
# Earliest Date & Time of Maximum Forecast: 09/01/2026 at 03:00 PM PDT
# Maximum Forecast Stage: 4.25 Feet
# Maximum Forecast Flow: 353 cfs
#
# OBSERVED
#
# Date & Time (Local) Stage (Feet) Flow (cfs) Trend Observed Status
# ---------------------------------------------------------------------------------
08/27/2026 07 AM PDT 4.24 350 Normal
08/27/2026 08 AM PDT 4.24 350 0 Normal
08/27/2026 09 AM PDT 4.23 346 - Normal
08/27/2026 10 AM PDT 4.23 346 0 Normal
08/27/2026 11 AM PDT 4.23 346 0 Normal
08/27/2026 12 PM PDT 4.23 346 0 Normal
08/27/2026 01 PM PDT 4.25 353 + Normal
08/27/2026 02 PM PDT 4.24 350 - Normal
08/27/2026 03 PM PDT 4.23 346 - Normal
08/27/2026 04 PM PDT 4.23 346 0 Normal
08/27/2026 05 PM PDT 4.23 346 0 Normal
08/27/2026 06 PM PDT 4.23 346 0 Normal
08/27/2026 07 PM PDT 4.23 346 0 Normal
08/27/2026 08 PM PDT 4.24 350 + Normal
08/27/2026 09 PM PDT 4.23 346 - Normal
08/27/2026 10 PM PDT 4.23 346 0 Normal
08/27/2026 11 PM PDT 4.23 346 0 Normal
08/28/2026 12 AM PDT 4.23 346 0 Normal
08/28/2026 01 AM PDT 4.22 343 - Normal
08/28/2026 02 AM PDT 4.22 343 0 Normal
08/28/2026 03 AM PDT 4.21 340 - Normal
08/28/2026 04 AM PDT 4.21 340 0 Normal
08/28/2026 05 AM PDT 4.21 340 0 Normal
08/28/2026 06 AM PDT 4.22 343 + Normal
08/28/2026 07 AM PDT 4.22 343 0 Normal
08/28/2026 08 AM PDT 4.22 343 0 Normal
08/28/2026 09 AM PDT 4.23 346 + Normal
08/28/2026 10 AM PDT 4.23 346 0 Normal
08/28/2026 11 AM PDT 4.24 350 + Normal
08/28/2026 12 PM PDT 4.26 357 + Normal
08/28/2026 01 PM PDT 4.28 364 + Normal
08/28/2026 02 PM PDT 4.27 360 - Normal
08/28/2026 03 PM PDT 4.27 360 0 Normal
08/28/2026 04 PM PDT 4.27 360 0 Normal
08/28/2026 05 PM PDT 4.27 360 0 Normal
08/28/2026 06 PM PDT 4.28 364 + Normal
08/28/2026 07 PM PDT 4.28 364 0 Normal
08/28/2026 08 PM PDT 4.29 367 + Normal
08/28/2026 09 PM PDT 4.28 364 - Normal
08/28/2026 10 PM PDT 4.28 364 0 Normal
08/28/2026 11 PM PDT 4.28 364 0 Normal
08/29/2026 12 AM PDT 4.29 367 + Normal
08/29/2026 01 AM PDT 4.28 364 - Normal
08/29/2026 02 AM PDT 4.28 364 0 Normal
08/29/2026 03 AM PDT 4.28 364 0 Normal
08/29/2026 04 AM PDT 4.28 364 0 Normal
08/29/2026 05 AM PDT 4.28 364 0 Normal
08/29/2026 06 AM PDT 4.28 364 0 Normal
08/29/2026 07 AM PDT 4.31 374 + Normal
08/29/2026 08 AM PDT 4.32 378 + Normal
08/29/2026 09 AM PDT 4.32 378 0 Normal
08/29/2026 10 AM PDT 4.32 378 0 Normal
08/29/2026 11 AM PDT 4.33 381 + Normal
08/29/2026 12 PM PDT 4.34 385 + Normal
08/29/2026 01 PM PDT 4.33 381 - Normal
08/29/2026 02 PM PDT 4.32 378 - Normal
08/29/2026 03 PM PDT 4.31 374 - Normal
08/29/2026 04 PM PDT 4.30 371 - Normal
08/29/2026 05 PM PDT 4.30 371 0 Normal
08/29/2026 06 PM PDT 4.29 367 - Normal
08/29/2026 07 PM PDT 4.29 367 0 Normal
08/29/2026 08 PM PDT 4.29 367 0 Normal
08/29/2026 09 PM PDT 4.29 367 0 Normal
08/29/2026 10 PM PDT 4.28 364 - Normal
08/29/2026 11 PM PDT 4.28 364 0 Normal
08/30/2026 12 AM PDT 4.28 364 0 Normal
08/30/2026 01 AM PDT 4.29 367 + Normal
08/30/2026 02 AM PDT 4.28 364 - Normal
08/30/2026 03 AM PDT 4.28 364 0 Normal
08/30/2026 04 AM PDT 4.27 360 - Normal
08/30/2026 05 AM PDT 4.27 360 0 Normal
08/30/2026 06 AM PDT 4.27 360 0 Normal
08/30/2026 07 AM PDT 4.27 360 0 Normal
08/30/2026 08 AM PDT 4.27 360 0 Normal
08/30/2026 09 AM PDT 4.28 364 + Normal
08/30/2026 10 AM PDT 4.28 364 0 Normal
08/30/2026 11 AM PDT 4.29 367 + Normal
08/30/2026 12 PM PDT 4.29 367 0 Normal
08/30/2026 01 PM PDT 4.29 367 0 Normal
08/30/2026 02 PM PDT 4.30 371 + Normal
08/30/2026 03 PM PDT 4.30 371 0 Normal
08/30/2026 04 PM PDT 4.30 371 0 Normal
08/30/2026 05 PM PDT 4.30 371 0 Normal
08/30/2026 06 PM PDT 4.29 367 - Normal
08/30/2026 07 PM PDT 4.30 371 + Normal
08/30/2026 08 PM PDT 4.30 371 0 Normal
08/30/2026 09 PM PDT 4.29 367 - Normal
08/30/2026 10 PM PDT 4.29 367 0 Normal
08/30/2026 11 PM PDT 4.29 367 0 Normal
08/31/2026 12 AM PDT 4.28 364 - Normal
08/31/2026 01 AM PDT 4.28 364 0 Normal
08/31/2026 02 AM PDT 4.31 374 + Normal
08/31/2026 03 AM PDT 4.31 374 0 Normal
08/31/2026 04 AM PDT 4.31 374 0 Normal
08/31/2026 05 AM PDT 4.31 374 0 Normal
08/31/2026 06 AM PDT 4.31 374 0 Normal
08/31/2026 07 AM PDT 4.31 374 0 Normal
08/31/2026 08 AM PDT 4.32 378 + Normal
08/31/2026 09 AM PDT 4.31 374 - Normal
08/31/2026 10 AM PDT 4.31 374 0 Normal
08/31/2026 11 AM PDT 4.32 378 + Normal
08/31/2026 12 PM PDT 4.33 381 + Normal
08/31/2026 01 PM PDT 4.31 374 - Normal
08/31/2026 02 PM PDT 4.31 374 0 Normal
08/31/2026 03 PM PDT 4.26 357 - Normal
08/31/2026 04 PM PDT 4.24 350 - Normal
08/31/2026 05 PM PDT 4.26 357 + Normal
08/31/2026 06 PM PDT 4.26 357 0 Normal
08/31/2026 07 PM PDT 4.27 360 + Normal
08/31/2026 08 PM PDT 4.27 360 0 Normal
08/31/2026 09 PM PDT 4.28 364 + Normal
08/31/2026 10 PM PDT 4.26 357 - Normal
08/31/2026 11 PM PDT 4.24 350 - Normal
09/01/2026 12 AM PDT 4.24 350 0 Normal
09/01/2026 01 AM PDT 4.24 350 0 Normal
09/01/2026 02 AM PDT 4.23 346 - Normal
09/01/2026 03 AM PDT 4.23 346 0 Normal
09/01/2026 04 AM PDT 4.24 350 + Normal
09/01/2026 05 AM PDT 4.23 346 - Normal
09/01/2026 06 AM PDT 4.23 346 0 Normal
09/01/2026 07 AM PDT 4.23 346 0 Normal
#
# FORECAST
#
# Date & Time (Local) Stage (Feet) Flow (cfs) Trend Forecast Status
# ---------------------------------------------------------------------------------
09/01/2026 08 AM PDT 4.23 346 Normal
09/01/2026 09 AM PDT 4.23 346 0 Normal
09/01/2026 10 AM PDT 4.23 346 0 Normal
09/01/2026 11 AM PDT 4.23 346 0 Normal
09/01/2026 12 PM PDT 4.23 346 0 Normal
09/01/2026 01 PM PDT 4.23 346 0 Normal
09/01/2026 02 PM PDT 4.23 346 0 Normal
09/01/2026 03 PM PDT 4.25 353 + Normal
09/01/2026 04 PM PDT 4.25 353 0 Normal
09/01/2026 05 PM PDT 4.24 350 - Normal
09/01/2026 06 PM PDT 4.24 350 0 Normal
09/01/2026 07 PM PDT 4.24 350 0 Normal
09/01/2026 08 PM PDT 4.24 350 0 Normal
09/01/2026 09 PM PDT 4.24 350 0 Normal
09/01/2026 10 PM PDT 4.24 350 0 Normal
09/01/2026 11 PM PDT 4.24 350 0 Normal
09/02/2026 12 AM PDT 4.24 350 0 Normal
09/02/2026 01 AM PDT 4.24 350 0 Normal
09/02/2026 02 AM PDT 4.24 350 0 Normal
09/02/2026 03 AM PDT 4.23 346 - Normal
09/02/2026 04 AM PDT 4.23 346 0 Normal
09/02/2026 05 AM PDT 4.23 346 0 Normal
09/02/2026 06 AM PDT 4.23 346 0 Normal
09/02/2026 07 AM PDT 4.23 346 0 Normal
09/02/2026 08 AM PDT 4.23 346 0 Normal
09/02/2026 09 AM PDT 4.23 346 0 Normal
09/02/2026 10 AM PDT 4.23 346 0 Normal
09/02/2026 11 AM PDT 4.23 346 0 Normal
09/02/2026 12 PM PDT 4.23 346 0 Normal
09/02/2026 01 PM PDT 4.23 346 0 Normal
09/02/2026 02 PM PDT 4.23 346 0 Normal
09/02/2026 03 PM PDT 4.23 346 0 Normal
09/02/2026 04 PM PDT 4.23 346 0 Normal
09/02/2026 05 PM PDT 4.23 346 0 Normal
09/02/2026 06 PM PDT 4.23 346 0 Normal
09/02/2026 07 PM PDT 4.23 346 0 Normal
09/02/2026 08 PM PDT 4.23 346 0 Normal
09/02/2026 09 PM PDT 4.23 346 0 Normal
09/02/2026 10 PM PDT 4.23 346 0 Normal
09/02/2026 11 PM PDT 4.23 346 0 Normal
09/03/2026 12 AM PDT 4.23 346 0 Normal
09/03/2026 01 AM PDT 4.23 346 0 Normal
09/03/2026 02 AM PDT 4.23 346 0 Normal
09/03/2026 03 AM PDT 4.23 346 0 Normal
09/03/2026 04 AM PDT 4.23 346 0 Normal
09/03/2026 05 AM PDT 4.23 346 0 Normal
09/03/2026 06 AM PDT 4.23 346 0 Normal
09/03/2026 07 AM PDT 4.23 346 0 Normal
09/03/2026 08 AM PDT 4.23 346 0 Normal
09/03/2026 09 AM PDT 4.23 346 0 Normal
09/03/2026 10 AM PDT 4.23 346 0 Normal
09/03/2026 11 AM PDT 4.23 346 0 Normal
09/03/2026 12 PM PDT 4.23 346 0 Normal
09/03/2026 01 PM PDT 4.23 346 0 Normal
09/03/2026 02 PM PDT 4.23 346 0 Normal
09/03/2026 03 PM PDT 4.23 346 0 Normal
09/03/2026 04 PM PDT 4.23 346 0 Normal
09/03/2026 05 PM PDT 4.22 343 - Normal
09/03/2026 06 PM PDT 4.22 343 0 Normal
09/03/2026 07 PM PDT 4.22 343 0 Normal
09/03/2026 08 PM PDT 4.22 343 0 Normal
09/03/2026 09 PM PDT 4.22 343 0 Normal
09/03/2026 10 PM PDT 4.22 343 0 Normal
09/03/2026 11 PM PDT 4.22 343 0 Normal
09/04/2026 12 AM PDT 4.22 343 0 Normal
09/04/2026 01 AM PDT 4.22 343 0 Normal
09/04/2026 02 AM PDT 4.22 343 0 Normal
09/04/2026 03 AM PDT 4.22 343 0 Normal
09/04/2026 04 AM PDT 4.22 343 0 Normal
09/04/2026 05 AM PDT 4.22 343 0 Normal
09/04/2026 06 AM PDT 4.22 343 0 Normal
09/04/2026 07 AM PDT 4.22 343 0 Normal
09/04/2026 08 AM PDT 4.22 343 0 Normal
09/04/2026 09 AM PDT 4.22 343 0 Normal
09/04/2026 10 AM PDT 4.22 343 0 Normal
09/04/2026 11 AM PDT 4.22 343 0 Normal
09/04/2026 12 PM PDT 4.22 343 0 Normal
09/04/2026 01 PM PDT 4.22 343 0 Normal
09/04/2026 02 PM PDT 4.22 343 0 Normal
09/04/2026 03 PM PDT 4.22 343 0 Normal
09/04/2026 04 PM PDT 4.22 343 0 Normal
09/04/2026 05 PM PDT 4.22 343 0 Normal
09/04/2026 06 PM PDT 4.22 343 0 Normal
09/04/2026 07 PM PDT 4.22 343 0 Normal
09/04/2026 08 PM PDT 4.22 343 0 Normal
09/04/2026 09 PM PDT 4.22 343 0 Normal
09/04/2026 10 PM PDT 4.22 343 0 Normal
09/04/2026 11 PM PDT 4.22 343 0 Normal
09/05/2026 12 AM PDT 4.22 343 0 Normal
09/05/2026 01 AM PDT 4.22 343 0 Normal
09/05/2026 02 AM PDT 4.22 343 0 Normal
09/05/2026 03 AM PDT 4.22 343 0 Normal
09/05/2026 04 AM PDT 4.22 343 0 Normal
09/05/2026 05 AM PDT 4.22 343 0 Normal
09/05/2026 06 AM PDT 4.22 343 0 Normal
09/05/2026 07 AM PDT 4.22 343 0 Normal
09/05/2026 08 AM PDT 4.22 343 0 Normal
09/05/2026 09 AM PDT 4.22 343 0 Normal
09/05/2026 10 AM PDT 4.22 343 0 Normal
09/05/2026 11 AM PDT 4.22 343 0 Normal
09/05/2026 12 PM PDT 4.22 343 0 Normal
09/05/2026 01 PM PDT 4.22 343 0 Normal
09/05/2026 02 PM PDT 4.22 343 0 Normal
09/05/2026 03 PM PDT 4.22 343 0 Normal
09/05/2026 04 PM PDT 4.22 343 0 Normal
09/05/2026 05 PM PDT 4.22 343 0 Normal
09/05/2026 06 PM PDT 4.22 343 0 Normal
09/05/2026 07 PM PDT 4.22 343 0 Normal
09/05/2026 08 PM PDT 4.22 343 0 Normal
09/05/2026 09 PM PDT 4.22 343 0 Normal
09/05/2026 10 PM PDT 4.22 343 0 Normal
09/05/2026 11 PM PDT 4.22 343 0 Normal
09/06/2026 12 AM PDT 4.22 343 0 Normal
09/06/2026 01 AM PDT 4.22 343 0 Normal
09/06/2026 02 AM PDT 4.22 343 0 Normal
09/06/2026 03 AM PDT 4.22 343 0 Normal
09/06/2026 04 AM PDT 4.22 343 0 Normal
09/06/2026 05 AM PDT 4.22 343 0 Normal
#
# NOTE 1: Stages are rounded to the nearest hundredth (.01) of a foot.
# NOTE 2: Flows are rounded to the nearest (1) cfs.
# NOTE 3: Trends are determined using hourly change in unrounded stage and flow.
# NOTE 4: Maximum Values are determined using unrounded stage and flow.
|